createdAt,value
2023-05-25T00:01:44.787Z,10.99
2023-05-25T00:04:17.137Z,10.95
2023-05-25T00:06:45.556Z,10.89
2023-05-25T00:09:13.040Z,10.68
2023-05-25T00:11:40.278Z,10.54
2023-05-25T00:14:08.331Z,10.58
2023-05-25T00:16:40.462Z,10.75
2023-05-25T00:19:10.466Z,10.75
2023-05-25T00:21:41.356Z,10.76
2023-05-25T00:24:08.605Z,10.65
2023-05-25T00:26:35.865Z,10.63
2023-05-25T00:29:04.415Z,10.66
2023-05-25T00:31:36.536Z,10.53
2023-05-25T00:34:03.784Z,10.45
2023-05-25T00:36:31.002Z,10.45
2023-05-25T00:38:58.186Z,10.36
2023-05-25T00:41:28.165Z,10.28
2023-05-25T00:43:55.382Z,10.28
2023-05-25T00:46:23.649Z,10.19
2023-05-25T00:48:56.236Z,10.22
2023-05-25T00:51:25.449Z,10.38
2023-05-25T00:53:52.953Z,10.43
2023-05-25T00:56:28.216Z,10.46
2023-05-25T00:58:58.979Z,10.42
2023-05-25T01:01:28.256Z,10.33
2023-05-25T01:03:57.667Z,10.45
2023-05-25T01:06:31.940Z,10.38
2023-05-25T01:09:04.290Z,10.43
2023-05-25T01:11:38.703Z,10.29
2023-05-25T01:14:06.348Z,10.28
2023-05-25T01:16:34.550Z,10.22
2023-05-25T01:19:02.387Z,10.27
2023-05-25T01:21:45.805Z,10.28
2023-05-25T01:24:22.420Z,10.38
2023-05-25T01:27:32.521Z,10.37
2023-05-25T01:30:03.844Z,10.24
2023-05-25T01:32:32.498Z,10.24
2023-05-25T01:35:01.361Z,10.36
2023-05-25T01:37:28.661Z,10.16
2023-05-25T01:39:55.934Z,10.25
2023-05-25T01:42:23.145Z,10.22
2023-05-25T01:44:51.141Z,10.18
2023-05-25T01:47:57.440Z,10.07
2023-05-25T01:50:40.441Z,10.08
2023-05-25T01:53:15.342Z,10.04
2023-05-25T01:55:51.733Z,9.90
2023-05-25T01:58:20.673Z,10.01
2023-05-25T02:00:51.016Z,10.05
2023-05-25T02:03:19.939Z,9.99
2023-05-25T02:05:47.596Z,9.93
2023-05-25T02:08:14.828Z,9.83
2023-05-25T02:10:42.031Z,9.83
2023-05-25T02:13:09.269Z,9.90
2023-05-25T02:15:36.505Z,9.81
2023-05-25T02:18:05.734Z,9.87
2023-05-25T02:20:33.135Z,9.81
2023-05-25T02:23:00.779Z,9.69
2023-05-25T02:25:28.059Z,9.54
2023-05-25T02:27:55.260Z,9.63
2023-05-25T02:30:22.582Z,9.66
2023-05-25T02:32:50.570Z,9.47
2023-05-25T02:35:17.862Z,9.51
2023-05-25T02:37:45.416Z,9.79
2023-05-25T02:40:13.852Z,9.61
2023-05-25T02:42:41.282Z,9.54
2023-05-25T02:45:13.112Z,9.35
2023-05-25T02:47:40.826Z,9.49
2023-05-25T02:50:08.533Z,9.49
2023-05-25T02:52:35.921Z,9.38
2023-05-25T02:55:03.512Z,9.17
2023-05-25T02:57:30.720Z,9.24
2023-05-25T02:59:57.912Z,9.39
2023-05-25T03:02:25.568Z,9.41
2023-05-25T03:04:55.692Z,9.32
2023-05-25T03:07:23.150Z,9.16
2023-05-25T03:09:50.409Z,9.05
2023-05-25T03:12:17.630Z,9.26
2023-05-25T03:14:44.804Z,9.31
2023-05-25T03:17:12.000Z,9.12
2023-05-25T03:19:39.353Z,9.21
2023-05-25T03:22:06.584Z,9.07
2023-05-25T03:24:33.771Z,9.05
2023-05-25T03:27:01.994Z,8.93
2023-05-25T03:29:29.221Z,9.05
2023-05-25T03:31:56.436Z,9.21
2023-05-25T03:34:24.676Z,8.91
2023-05-25T03:36:53.423Z,9.00
2023-05-25T03:39:22.152Z,8.94
2023-05-25T03:41:49.383Z,8.80
2023-05-25T03:44:16.735Z,8.79
2023-05-25T03:46:44.026Z,8.52
2023-05-25T03:49:13.848Z,8.54
2023-05-25T03:51:42.770Z,9.22
2023-05-25T03:54:10.007Z,9.09
2023-05-25T03:56:37.371Z,9.50
2023-05-25T03:59:04.598Z,9.33
2023-05-25T04:01:31.951Z,9.55
2023-05-25T04:03:59.239Z,9.31
2023-05-25T04:06:26.594Z,8.91
2023-05-25T04:08:53.864Z,9.03
2023-05-25T04:11:22.597Z,9.40
2023-05-25T04:13:49.795Z,8.78
2023-05-25T04:16:17.011Z,8.89
2023-05-25T04:18:44.170Z,8.84
2023-05-25T04:21:11.360Z,9.11
2023-05-25T04:23:38.534Z,9.04
2023-05-25T04:26:06.073Z,8.65
2023-05-25T04:28:33.291Z,8.39
2023-05-25T04:31:00.557Z,8.54
2023-05-25T04:33:29.710Z,8.59
2023-05-25T04:35:58.658Z,8.30
2023-05-25T04:38:26.370Z,8.78
2023-05-25T04:40:54.032Z,8.75
2023-05-25T04:43:21.268Z,8.56
2023-05-25T04:45:48.586Z,9.07
2023-05-25T04:48:15.776Z,8.89
2023-05-25T04:50:43.090Z,9.19
2023-05-25T04:53:10.997Z,8.80
2023-05-25T04:55:38.529Z,8.76
2023-05-25T04:58:05.737Z,9.03
2023-05-25T05:00:34.281Z,8.90
2023-05-25T05:03:01.607Z,9.13
2023-05-25T05:05:30.815Z,9.05
2023-05-25T05:07:58.052Z,8.61
2023-05-25T05:10:25.295Z,9.13
2023-05-25T05:12:52.449Z,9.04
2023-05-25T05:15:19.653Z,8.75
2023-05-25T05:17:46.956Z,9.11
2023-05-25T05:20:14.234Z,8.94
2023-05-25T05:22:41.438Z,9.02
2023-05-25T05:25:09.312Z,9.00
2023-05-25T05:27:36.513Z,9.18
2023-05-25T05:30:04.641Z,9.00
2023-05-25T05:32:31.925Z,9.18
2023-05-25T05:34:59.146Z,9.59
2023-05-25T05:37:26.327Z,9.65
2023-05-25T05:39:53.490Z,9.23
2023-05-25T05:42:20.711Z,9.65
2023-05-25T05:44:47.887Z,9.61
2023-05-25T05:47:15.093Z,9.78
2023-05-25T05:49:42.297Z,9.58
2023-05-25T05:52:12.334Z,9.62
2023-05-25T05:54:39.506Z,9.43
2023-05-25T05:57:06.735Z,9.63
2023-05-25T05:59:34.386Z,9.55
2023-05-25T06:02:01.760Z,9.63
2023-05-25T06:04:29.342Z,9.11
2023-05-25T06:06:56.586Z,9.04
2023-05-25T06:09:23.833Z,9.26
2023-05-25T06:11:51.488Z,8.80
2023-05-25T06:14:18.785Z,8.86
2023-05-25T06:16:46.020Z,9.18
2023-05-25T06:19:14.409Z,9.22
2023-05-25T06:21:41.589Z,8.84
2023-05-25T06:24:08.827Z,8.88
2023-05-25T06:26:35.999Z,9.08
2023-05-25T06:29:03.249Z,9.07
2023-05-25T06:31:30.800Z,9.58
2023-05-25T06:33:58.042Z,9.82
2023-05-25T06:36:25.309Z,9.70
2023-05-25T06:38:52.487Z,9.63
2023-05-25T06:41:19.775Z,10.05
2023-05-25T06:43:47.182Z,9.79
2023-05-25T06:46:18.210Z,9.46
2023-05-25T06:48:46.118Z,9.59
2023-05-25T06:51:13.861Z,9.68
2023-05-25T06:53:41.157Z,9.84
2023-05-25T06:56:08.365Z,9.74
2023-05-25T06:58:35.589Z,9.69
2023-05-25T07:01:03.104Z,9.48
2023-05-25T07:03:30.305Z,9.78
2023-05-25T07:05:58.363Z,9.82
2023-05-25T07:08:25.738Z,9.94
2023-05-25T07:10:52.939Z,9.97
2023-05-25T07:13:20.136Z,10.05
2023-05-25T07:15:47.559Z,9.89
2023-05-25T07:18:15.270Z,10.02
2023-05-25T07:20:43.943Z,10.03
2023-05-25T07:23:12.123Z,10.25
2023-05-25T07:25:41.038Z,9.85
2023-05-25T07:28:08.730Z,9.69
2023-05-25T07:30:36.475Z,9.81
2023-05-25T07:33:03.798Z,9.81
2023-05-25T07:35:31.005Z,9.65
2023-05-25T07:38:06.991Z,10.03
2023-05-25T07:40:34.191Z,10.05
2023-05-25T07:43:01.458Z,10.11
2023-05-25T07:45:28.660Z,10.17
2023-05-25T07:47:56.072Z,10.33
2023-05-25T07:50:23.955Z,10.55
2023-05-25T07:52:51.308Z,10.60
2023-05-25T07:55:20.054Z,10.37
2023-05-25T07:57:47.337Z,10.58
2023-05-25T08:00:14.945Z,10.90
2023-05-25T08:02:42.252Z,10.64
2023-05-25T08:05:10.526Z,10.69
2023-05-25T08:07:38.982Z,10.65
2023-05-25T08:10:09.135Z,10.87
2023-05-25T08:12:47.809Z,10.96
2023-05-25T08:15:16.761Z,10.96
2023-05-25T08:17:44.473Z,11.09
2023-05-25T08:20:12.413Z,11.23
2023-05-25T08:22:39.765Z,11.04
2023-05-25T08:25:08.300Z,11.28
2023-05-25T08:27:36.578Z,11.31
2023-05-25T08:30:08.056Z,11.38
2023-05-25T08:32:35.339Z,11.35
2023-05-25T08:35:03.526Z,11.46
2023-05-25T08:37:32.448Z,11.53
2023-05-25T08:40:02.217Z,11.67
2023-05-25T08:42:29.519Z,11.50
2023-05-25T08:44:56.987Z,11.66
2023-05-25T08:47:24.973Z,11.60
2023-05-25T08:49:55.198Z,11.65
2023-05-25T08:52:25.174Z,11.45
2023-05-25T08:54:57.235Z,11.44
2023-05-25T08:57:32.094Z,11.32
2023-05-25T09:00:11.175Z,11.74
2023-05-25T09:03:09.559Z,11.70
2023-05-25T09:05:38.184Z,11.57
2023-05-25T09:08:10.266Z,11.90
2023-05-25T09:10:38.807Z,11.83
2023-05-25T09:13:20.346Z,11.77
2023-05-25T09:15:50.504Z,11.73
2023-05-25T09:18:17.942Z,12.02
2023-05-25T09:20:47.085Z,11.94
2023-05-25T09:23:15.149Z,12.07
2023-05-25T09:25:43.778Z,12.37
2023-05-25T09:30:41.496Z,12.49
2023-05-25T09:33:19.241Z,12.56
2023-05-25T09:35:46.858Z,12.36
2023-05-25T09:38:16.443Z,12.30
2023-05-25T09:40:45.368Z,12.11
2023-05-25T09:43:28.451Z,12.18
2023-05-25T09:46:04.111Z,12.49
2023-05-25T09:48:31.450Z,12.62
2023-05-25T09:50:58.638Z,12.90
2023-05-25T09:53:26.804Z,12.90
2023-05-25T09:55:54.600Z,12.83
2023-05-25T09:58:25.182Z,12.83
2023-05-25T10:00:54.772Z,13.03
2023-05-25T10:03:22.479Z,12.81
2023-05-25T10:05:51.766Z,12.84
2023-05-25T10:08:21.815Z,12.71
2023-05-25T10:10:50.680Z,13.09
2023-05-25T10:13:25.184Z,13.17
2023-05-25T10:15:54.201Z,13.30
2023-05-25T10:18:28.054Z,13.20
2023-05-25T10:21:05.180Z,13.21
2023-05-25T10:23:45.941Z,13.66
2023-05-25T10:26:21.719Z,14.05
2023-05-25T10:28:55.044Z,14.15
2023-05-25T10:31:22.606Z,14.11
2023-05-25T10:33:52.531Z,13.97
2023-05-25T10:36:21.207Z,14.02
2023-05-25T10:38:51.902Z,14.11
2023-05-25T10:41:21.049Z,13.82
2023-05-25T10:43:49.443Z,14.01
2023-05-25T10:46:17.159Z,13.81
2023-05-25T10:48:50.152Z,13.90
2023-05-25T10:51:19.572Z,14.27
2023-05-25T10:53:59.068Z,15.03
2023-05-25T10:56:26.350Z,15.05
2023-05-25T10:58:53.662Z,14.56
2023-05-25T11:01:21.184Z,14.25
2023-05-25T11:04:10.705Z,14.07
2023-05-25T11:06:40.164Z,14.37
2023-05-25T11:09:07.721Z,14.43
2023-05-25T11:11:45.261Z,14.27
2023-05-25T11:14:29.648Z,14.32
2023-05-25T11:17:15.757Z,13.95
2023-05-25T11:19:51.527Z,13.67
2023-05-25T11:22:31.448Z,13.69
2023-05-25T11:25:00.644Z,13.85
2023-05-25T11:27:31.284Z,13.76
2023-05-25T11:29:59.889Z,13.95
2023-05-25T11:32:28.225Z,13.83
2023-05-25T11:34:58.532Z,14.11
2023-05-25T11:37:31.371Z,14.25
2023-05-25T11:39:58.870Z,14.28
2023-05-25T11:42:26.234Z,14.26
2023-05-25T11:44:53.861Z,14.31
2023-05-25T11:47:24.637Z,14.39
2023-05-25T11:49:51.927Z,14.48
2023-05-25T11:52:22.042Z,14.66
2023-05-25T11:54:49.291Z,14.82
2023-05-25T11:57:18.196Z,15.56
2023-05-25T11:59:54.124Z,16.19
2023-05-25T12:02:23.534Z,16.34
2023-05-25T12:04:56.153Z,16.73
2023-05-25T12:07:24.743Z,16.56
2023-05-25T12:10:04.036Z,16.29
2023-05-25T12:12:43.981Z,15.62
2023-05-25T12:15:16.258Z,16.27
2023-05-25T12:17:45.562Z,16.81
2023-05-25T12:20:15.431Z,16.80
2023-05-25T12:22:44.684Z,17.20
2023-05-25T12:25:13.228Z,16.90
2023-05-25T12:27:40.686Z,17.32
2023-05-25T12:30:12.708Z,17.20
2023-05-25T12:33:03.780Z,17.16
2023-05-25T12:35:46.098Z,17.31
2023-05-25T12:38:18.556Z,17.65
2023-05-25T12:40:46.384Z,17.76
2023-05-25T12:43:16.716Z,17.31
2023-05-25T12:45:44.703Z,17.35
2023-05-25T12:48:12.017Z,17.41
2023-05-25T12:50:39.512Z,17.17
2023-05-25T12:53:06.803Z,17.22
2023-05-25T12:55:36.155Z,17.08
2023-05-25T12:58:06.872Z,17.09
2023-05-25T13:00:39.262Z,16.77
2023-05-25T13:03:07.756Z,17.05
2023-05-25T13:05:37.457Z,17.13
2023-05-25T13:08:05.979Z,17.36
2023-05-25T13:10:34.072Z,17.09
2023-05-25T13:13:01.993Z,16.82
2023-05-25T13:15:29.355Z,17.16
2023-05-25T13:17:59.662Z,17.10
2023-05-25T13:20:30.153Z,17.04
2023-05-25T13:22:58.019Z,17.12
2023-05-25T13:25:28.079Z,17.57
2023-05-25T13:27:57.615Z,17.64
2023-05-25T13:30:25.472Z,17.68
2023-05-25T13:32:53.072Z,17.92
2023-05-25T13:35:37.595Z,17.66
2023-05-25T13:38:05.606Z,17.51
2023-05-25T13:40:32.843Z,17.46
2023-05-25T13:42:59.994Z,17.23
2023-05-25T13:45:27.481Z,17.29
2023-05-25T13:47:54.886Z,17.00
2023-05-25T13:50:22.268Z,17.06
2023-05-25T13:52:49.456Z,17.19
2023-05-25T13:55:16.656Z,17.15
2023-05-25T13:57:43.841Z,17.45
2023-05-25T14:00:11.894Z,17.58
2023-05-25T14:02:39.212Z,18.01
2023-05-25T14:05:06.761Z,17.93
2023-05-25T14:07:33.947Z,17.81
2023-05-25T14:10:01.209Z,17.89
2023-05-25T14:12:28.416Z,17.42
2023-05-25T14:14:55.690Z,17.42
2023-05-25T14:17:24.359Z,17.75
2023-05-25T14:19:51.688Z,17.63
2023-05-25T14:22:19.251Z,17.29
2023-05-25T14:24:46.574Z,17.53
2023-05-25T14:27:15.974Z,18.13
2023-05-25T14:29:43.144Z,18.17
2023-05-25T14:32:10.634Z,18.18
2023-05-25T14:34:37.850Z,18.43
2023-05-25T14:37:05.059Z,18.37
2023-05-25T14:39:32.238Z,18.24
2023-05-25T14:41:59.465Z,17.94
2023-05-25T14:44:26.682Z,18.06
2023-05-25T14:46:54.127Z,17.98
2023-05-25T14:49:24.738Z,17.99
2023-05-25T14:51:51.935Z,18.36
2023-05-25T14:54:19.817Z,18.46
2023-05-25T14:56:47.836Z,18.31
2023-05-25T14:59:15.064Z,18.07
2023-05-25T15:01:43.160Z,18.07
2023-05-25T15:04:10.770Z,18.17
2023-05-25T15:06:39.347Z,18.13
2023-05-25T15:09:07.039Z,18.28
2023-05-25T15:11:34.276Z,18.13
2023-05-25T15:14:01.458Z,17.99
2023-05-25T15:16:28.759Z,17.99
2023-05-25T15:18:56.290Z,17.93
2023-05-25T15:21:23.474Z,18.15
2023-05-25T15:23:50.950Z,18.24
2023-05-25T15:26:18.143Z,18.35
2023-05-25T15:28:45.304Z,18.40
2023-05-25T15:31:12.575Z,18.58
2023-05-25T15:33:53.842Z,18.45
2023-05-25T15:36:25.461Z,18.07
2023-05-25T15:38:52.652Z,18.22
2023-05-25T15:41:19.818Z,18.16
2023-05-25T15:43:54.525Z,17.99
2023-05-25T15:46:22.041Z,18.05
2023-05-25T15:48:49.399Z,17.98
2023-05-25T15:51:16.785Z,17.93
2023-05-25T15:53:44.250Z,18.08
2023-05-25T15:56:11.493Z,17.96
2023-05-25T15:58:39.026Z,18.07
2023-05-25T16:01:06.290Z,18.26
2023-05-25T16:03:45.423Z,18.39
2023-05-25T16:06:12.634Z,18.23
2023-05-25T16:08:39.875Z,18.24
2023-05-25T16:11:07.053Z,18.29
2023-05-25T16:13:34.241Z,17.95
2023-05-25T16:16:01.445Z,18.18
2023-05-25T16:18:28.731Z,18.21
2023-05-25T16:20:57.526Z,18.20
2023-05-25T16:23:25.075Z,18.05
2023-05-25T16:25:52.269Z,17.95
2023-05-25T16:28:19.727Z,18.09
2023-05-25T16:30:47.265Z,17.92
2023-05-25T16:33:14.589Z,17.87
2023-05-25T16:35:41.914Z,17.98
2023-05-25T16:38:09.205Z,17.92
2023-05-25T16:40:37.024Z,18.05
2023-05-25T16:43:04.228Z,17.96
2023-05-25T16:45:31.422Z,17.84
2023-05-25T16:47:58.730Z,17.83
2023-05-25T16:50:26.000Z,17.78
2023-05-25T16:52:53.226Z,18.01
2023-05-25T16:55:21.314Z,17.96
2023-05-25T16:57:48.525Z,18.08
2023-05-25T17:00:16.340Z,17.93
2023-05-25T17:02:43.639Z,18.15
2023-05-25T17:05:11.030Z,18.21
2023-05-25T17:07:39.278Z,17.99
2023-05-25T17:10:08.407Z,18.04
2023-05-25T17:12:35.571Z,18.08
2023-05-25T17:15:03.019Z,17.84
2023-05-25T17:17:30.289Z,17.97
2023-05-25T17:19:57.520Z,18.10
2023-05-25T17:22:24.762Z,17.82
2023-05-25T17:24:51.931Z,18.04
2023-05-25T17:27:19.132Z,17.76
2023-05-25T17:29:46.446Z,17.65
2023-05-25T17:32:13.879Z,17.72
2023-05-25T17:34:41.048Z,17.64
2023-05-25T17:37:08.267Z,17.66
2023-05-25T17:39:36.070Z,17.61
2023-05-25T17:42:03.468Z,17.75
2023-05-25T17:44:30.863Z,17.67
2023-05-25T17:46:58.091Z,17.66
2023-05-25T17:49:25.345Z,17.47
2023-05-25T17:51:52.907Z,17.47
2023-05-25T17:54:25.400Z,17.52
2023-05-25T17:56:53.461Z,17.49
2023-05-25T17:59:20.753Z,17.49
2023-05-25T18:01:48.168Z,17.43
2023-05-25T18:04:15.585Z,17.44
2023-05-25T18:06:42.954Z,17.39
2023-05-25T18:09:10.180Z,17.38
2023-05-25T18:11:37.488Z,17.32
2023-05-25T18:14:05.175Z,17.31
2023-05-25T18:16:32.777Z,17.29
2023-05-25T18:19:00.009Z,17.33
2023-05-25T18:21:27.242Z,17.31
2023-05-25T18:23:54.406Z,17.26
2023-05-25T18:26:21.903Z,17.26
2023-05-25T18:28:49.109Z,17.27
2023-05-25T18:31:16.426Z,17.34
2023-05-25T18:33:43.656Z,17.28
2023-05-25T18:36:10.864Z,17.26
2023-05-25T18:38:38.062Z,17.24
2023-05-25T18:41:05.302Z,17.20
2023-05-25T18:43:32.496Z,17.10
2023-05-25T18:45:59.751Z,16.98
2023-05-25T18:48:27.035Z,16.97
2023-05-25T18:50:54.223Z,16.89
2023-05-25T18:53:21.548Z,16.74
2023-05-25T18:55:48.750Z,16.67
2023-05-25T18:58:16.109Z,16.64
2023-05-25T19:00:43.315Z,16.53
2023-05-25T19:03:10.820Z,16.45
2023-05-25T19:05:38.087Z,16.51
2023-05-25T19:08:05.399Z,16.32
2023-05-25T19:10:32.648Z,16.28
2023-05-25T19:12:59.838Z,16.04
2023-05-25T19:15:27.057Z,15.94
2023-05-25T19:17:54.281Z,15.90
2023-05-25T19:20:21.589Z,15.88
2023-05-25T19:22:48.841Z,15.84
2023-05-25T19:25:16.125Z,15.78
2023-05-25T19:27:43.369Z,15.70
2023-05-25T19:30:11.114Z,15.78
2023-05-25T19:32:38.303Z,15.59
2023-05-25T19:35:05.844Z,15.59
2023-05-25T19:37:33.068Z,15.48
2023-05-25T19:40:00.282Z,15.39
2023-05-25T19:42:27.484Z,15.33
2023-05-25T19:44:54.967Z,15.56
2023-05-25T19:47:22.262Z,15.42
2023-05-25T19:49:49.496Z,15.43
2023-05-25T19:52:17.798Z,15.40
2023-05-25T19:54:44.986Z,15.35
2023-05-25T19:57:12.191Z,15.33
2023-05-25T19:59:39.431Z,15.21
2023-05-25T20:02:06.625Z,15.11
2023-05-25T20:04:34.266Z,15.24
2023-05-25T20:07:01.551Z,15.30
2023-05-25T20:09:31.774Z,15.30
2023-05-25T20:11:59.702Z,15.26
2023-05-25T20:14:27.147Z,15.13
2023-05-25T20:16:55.776Z,15.12
2023-05-25T20:19:23.261Z,15.07
2023-05-25T20:21:51.214Z,15.02
2023-05-25T20:24:18.732Z,14.92
2023-05-25T20:26:45.913Z,14.92
2023-05-25T20:29:13.138Z,14.83
2023-05-25T20:31:40.550Z,14.75
2023-05-25T20:34:07.823Z,14.77
2023-05-25T20:36:35.027Z,14.71
2023-05-25T20:39:03.188Z,14.83
2023-05-25T20:41:30.609Z,14.73
2023-05-25T20:43:57.954Z,14.65
2023-05-25T20:46:26.097Z,14.54
2023-05-25T20:48:56.310Z,14.61
2023-05-25T20:51:23.685Z,14.37
2023-05-25T20:53:50.989Z,14.43
2023-05-25T20:56:18.220Z,14.51
2023-05-25T20:58:45.472Z,14.45
2023-05-25T21:01:12.809Z,14.39
2023-05-25T21:03:40.229Z,14.29
2023-05-25T21:06:07.892Z,14.29
2023-05-25T21:08:35.418Z,14.30
2023-05-25T21:11:02.757Z,14.20
2023-05-25T21:13:30.054Z,14.03
2023-05-25T21:15:57.353Z,14.26
2023-05-25T21:18:24.534Z,14.07
2023-05-25T21:20:51.791Z,14.06
2023-05-25T21:23:19.183Z,14.02
2023-05-25T21:25:46.996Z,14.15
2023-05-25T21:28:14.655Z,14.02
2023-05-25T21:30:41.996Z,14.02
2023-05-25T21:33:09.236Z,13.73
2023-05-25T21:35:36.449Z,13.71
2023-05-25T21:38:03.634Z,13.78
2023-05-25T21:40:30.934Z,13.48
2023-05-25T21:42:58.397Z,13.76
2023-05-25T21:45:25.625Z,13.60
2023-05-25T21:47:52.995Z,13.70
2023-05-25T21:50:20.516Z,13.80
2023-05-25T21:52:47.724Z,13.68
2023-05-25T21:55:14.930Z,13.55
2023-05-25T21:57:42.858Z,13.70
2023-05-25T22:00:12.715Z,13.66
2023-05-25T22:02:41.188Z,13.62
2023-05-25T22:05:08.475Z,13.77
2023-05-25T22:07:35.701Z,13.60
2023-05-25T22:10:02.973Z,13.57
2023-05-25T22:12:30.254Z,13.46
2023-05-25T22:14:57.430Z,13.64
2023-05-25T22:17:24.658Z,13.48
2023-05-25T22:20:05.999Z,13.39
2023-05-25T22:22:35.192Z,13.47
2023-05-25T22:25:02.408Z,13.08
2023-05-25T22:27:29.577Z,13.39
2023-05-25T22:29:56.753Z,13.14
2023-05-25T22:32:24.349Z,13.35
2023-05-25T22:34:51.545Z,13.34
2023-05-25T22:37:18.918Z,13.21
2023-05-25T22:39:46.128Z,13.29
2023-05-25T22:42:13.338Z,13.18
2023-05-25T22:44:40.531Z,13.18
2023-05-25T22:47:07.749Z,13.24
2023-05-25T22:49:41.261Z,13.22
2023-05-25T22:52:12.027Z,12.87
2023-05-25T22:54:39.777Z,13.01
2023-05-25T22:57:09.609Z,12.97
2023-05-25T22:59:37.069Z,12.92
2023-05-25T23:02:04.764Z,13.12
2023-05-25T23:04:33.738Z,12.65
2023-05-25T23:07:00.914Z,12.62
2023-05-25T23:09:28.081Z,12.87
2023-05-25T23:11:55.509Z,12.84
2023-05-25T23:14:22.801Z,12.64
2023-05-25T23:16:50.125Z,12.80
2023-05-25T23:19:17.975Z,12.67
2023-05-25T23:21:45.981Z,12.56
2023-05-25T23:24:13.199Z,12.69
2023-05-25T23:26:40.412Z,12.44
2023-05-25T23:29:07.643Z,12.33
2023-05-25T23:31:34.937Z,12.33
2023-05-25T23:34:02.149Z,12.45
2023-05-25T23:36:29.391Z,12.57
2023-05-25T23:38:56.727Z,12.52
2023-05-25T23:41:25.218Z,12.39
2023-05-25T23:43:52.414Z,12.47
2023-05-25T23:46:19.732Z,12.32
2023-05-25T23:48:46.999Z,12.38
2023-05-25T23:51:14.190Z,12.44
2023-05-25T23:53:41.382Z,12.44
2023-05-25T23:56:08.606Z,12.42
2023-05-25T23:58:35.837Z,12.16
